Chrisanthi — SX7108 — position and weather

sailwx.info

Track history (hours):
 
Tides and Currents Weather Stations Pressure Air Temp Water Temp Dewpoint Dewpoint Depression Visibility Wind Speed Wind Dir Waves Ship Positions

Chrisanthi

Last reported at 2014-Oct-24 12:34 UTC. Time now 2014-Oct-25 01:39 UTC.
Position N 37°42' E 023°27'.

Length 56 m; draft 3.9 m.

Type: Tanker. MMSI: 237009100.

Date/timePositionNaut miles runAvg speedWind from/ knotsBaromVisibWave heightAir tempDewpointWater temp
2014-Oct-24 12:34N 37°42' E 023°27'8 7.9
2014-Oct-24 11:33N 37°43' E 023°17'12 9.9
2014-Oct-24 10:19N 37°53' E 023°07'3 1.4
2014-Oct-24 08:26N 37°55' E 023°05'11 1.4
2014-Oct-24 00:24N 37°52' E 023°19'910.4
2014-Oct-23 23:34N 37°50' E 023°30'9 9.2
2014-Oct-23 22:34N 37°48' E 023°41'28 9.4
2014-Oct-23 19:32N 37°31' E 024°10'10 9.9
2014-Oct-23 18:33N 37°30' E 024°22'9 9.2
2014-Oct-23 17:34N 37°25' E 024°32'10 9.6
2014-Oct-23 16:33N 37°18' E 024°39'9 9.0
2014-Oct-23 15:33N 37°13' E 024°49'8 8.1
2014-Oct-23 14:33N 37°10' E 024°58'10 8.7
2014-Oct-23 13:28N 37°05' E 025°09'0 0.4
2014-Oct-23 12:28N 37°06' E 025°08'1 0.6
2014-Oct-23 11:26N 37°05' E 025°09'0 0.0
2014-Oct-23 10:29N 37°05' E 025°09'0 0.0
2014-Oct-23 09:10N 37°05' E 025°09'0 0.0
2014-Oct-23 08:18N 37°05' E 025°09'0 0.0
2014-Oct-23 07:27N 37°05' E 025°09'0 0.0
2014-Oct-23 06:33N 37°05' E 025°09'0 0.1
2014-Oct-23 05:16N 37°05' E 025°09'4 6.0
2014-Oct-23 04:33N 37°09' E 025°11'8 8.2
2014-Oct-23 03:33N 37°06' E 025°21'1 0.5
2014-Oct-23 02:33N 37°06' E 025°22'0 0.0
2014-Oct-23 01:33N 37°06' E 025°22'0 0.0
2014-Oct-23 00:33N 37°06' E 025°22'0 0.0
2014-Oct-22 23:34N 37°06' E 025°22'0 0.0
2014-Oct-22 22:33N 37°06' E 025°22'0 0.0
2014-Oct-22 21:33N 37°06' E 025°22'0 0.0
2014-Oct-22 20:33N 37°06' E 025°22'1 0.6
2014-Oct-22 19:33N 37°06' E 025°22'0 0.0
2014-Oct-22 18:33N 37°06' E 025°22'0 0.0
2014-Oct-22 17:33N 37°06' E 025°22'0 0.0
2014-Oct-22 16:33N 37°06' E 025°22'0 0.0
2014-Oct-22 15:33N 37°06' E 025°22'1 0.9
2014-Oct-22 14:33N 37°06' E 025°21'8 7.7
2014-Oct-22 13:33N 36°59' E 025°21'9 8.5
2014-Oct-22 12:33N 36°55' E 025°31'4 4.3
2014-Oct-22 11:33N 36°56' E 025°36'3 3.5
2014-Oct-22 10:33N 36°58' E 025°40'9 2.3
2014-Oct-22 06:33N 37°05' E 025°47'1010.2
2014-Oct-22 05:33N 36°57' E 025°39'3 2.8
2014-Oct-22 04:33N 36°56' E 025°36'7 6.6
2014-Oct-22 03:33N 36°52' E 025°29'0 0.5
2014-Oct-22 02:32N 36°52' E 025°29'0 0.0
2014-Oct-22 01:33N 36°52' E 025°29'0 0.0
2014-Oct-22 00:33N 36°52' E 025°29'0 0.0
2014-Oct-21 23:33N 36°52' E 025°29'0 0.0
2014-Oct-21 22:33N 36°52' E 025°29'0 0.0
2014-Oct-21 21:33N 36°52' E 025°29'1 0.6
2014-Oct-21 20:33N 36°52' E 025°28'0 0.0
2014-Oct-21 19:33N 36°52' E 025°28'0 0.0
2014-Oct-21 18:33N 36°52' E 025°28'0 0.0
2014-Oct-21 17:33N 36°52' E 025°28'2 1.6
2014-Oct-21 16:33N 36°52' E 025°26'1010.1
2014-Oct-21 15:33N 36°47' E 025°15'4 3.5
2014-Oct-21 14:33N 36°43' E 025°16'0 0.3
2014-Oct-21 13:33N 36°43' E 025°16'10 9.8
2014-Oct-21 12:33N 36°34' E 025°19'1010.1
2014-Oct-21 11:33N 36°25' E 025°25'2 1.7
2014-Oct-21 10:33N 36°23' E 025°26'0 0.0
2014-Oct-21 09:33N 36°23' E 025°26'0 0.0
2014-Oct-21 08:33N 36°23' E 025°26'0 0.0
2014-Oct-21 07:33N 36°23' E 025°26'7 6.7
2014-Oct-21 06:33N 36°29' E 025°23'1010.2
2014-Oct-21 05:33N 36°32' E 025°35'1110.5
2014-Oct-21 04:33N 36°35' E 025°47'1010.0
2014-Oct-21 03:33N 36°39' E 025°59'11 9.9
2014-Oct-21 02:30N 36°43' E 026°11'9 9.8
2014-Oct-21 01:33N 36°45' E 026°22'  
2014-Oct-18 00:33N 37°04' E 026°19'1510.8
2014-Oct-17 23:12N 37°08' E 026°01'1211.1
2014-Oct-17 22:08N 37°10' E 025°47'710.4
2014-Oct-17 21:29N 37°12' E 025°38'910.2
2014-Oct-17 20:33N 37°11' E 025°27'6 5.5
2014-Oct-17 19:32N 37°06' E 025°22'0 0.0
2014-Oct-17 18:33N 37°06' E 025°22'0 0.0
2014-Oct-17 17:33N 37°06' E 025°22'6 6.4
2014-Oct-17 16:33N 37°11' E 025°16'1310.2
2014-Oct-17 15:19N 37°16' E 025°02'810.2
2014-Oct-17 14:33N 37°19' E 024°53'4710.6
2014-Oct-17 10:07N 37°35' E 023°58'610.1
2014-Oct-17 09:32N 37°37' E 023°51'9 9.4
2014-Oct-17 08:33N 37°42' E 023°41'1010.1
2014-Oct-17 07:33N 37°50' E 023°33'1110.6
2014-Oct-17 06:33N 37°52' E 023°20'1 0.1
2014-Oct-16 19:33N 37°52' E 023°22'1010.1
2014-Oct-16 18:33N 37°51' E 023°34'9 8.8
2014-Oct-16 17:33N 37°45' E 023°43'10 9.5
2014-Oct-16 16:30N 37°38' E 023°52'1310.0
2014-Oct-16 15:10N 37°34' E 024°08'1610.1
2014-Oct-16 13:33N 37°29' E 024°28'10 9.7
2014-Oct-16 12:33N 37°24' E 024°38'10 9.8
2014-Oct-16 11:33N 37°18' E 024°48'10 9.9
2014-Oct-16 10:33N 37°12' E 024°57'1110.1
2014-Oct-16 09:28N 37°05' E 025°08'0 0.1
2014-Oct-16 06:16N 37°05' E 025°09'0 0.0
2014-Oct-16 05:16N 37°05' E 025°09'4 4.7
2014-Oct-16 04:25N 37°09' E 025°11'7 8.5
2014-Oct-16 03:33N 37°08' E 025°20'2 1.8
2014-Oct-16 02:33N 37°06' E 025°22'0 0.0
2014-Oct-16 01:33N 37°06' E 025°22'0 0.0
2014-Oct-16 00:33N 37°06' E 025°22'0 0.0
2014-Oct-15 23:33N 37°06' E 025°22'0 0.0
2014-Oct-15 22:33N 37°06' E 025°22'0 0.0
2014-Oct-15 21:33N 37°06' E 025°22'0 0.0
2014-Oct-15 20:33N 37°06' E 025°22'1 0.5
2014-Oct-15 19:33N 37°06' E 025°22'0 0.0
2014-Oct-15 18:33N 37°06' E 025°22'4 4.1
2014-Oct-15 17:33N 37°04' E 025°19'1010.1
2014-Oct-15 16:33N 36°54' E 025°16'1010.3
2014-Oct-15 15:33N 36°44' E 025°14'2 1.5
2014-Oct-15 14:33N 36°43' E 025°16'3 3.3
2014-Oct-15 13:33N 36°40' E 025°16'1110.8
2014-Oct-15 12:34N 36°30' E 025°21'8 7.8
2014-Oct-15 11:33N 36°23' E 025°26'0 0.0
2014-Oct-15 10:33N 36°23' E 025°26'0 0.0
2014-Oct-15 09:34N 36°23' E 025°26'0 0.0
2014-Oct-15 08:33N 36°23' E 025°26'0 0.0
2014-Oct-15 07:33N 36°23' E 025°26'0 0.0
2014-Oct-15 06:33N 36°23' E 025°26'5 4.8
2014-Oct-15 05:33N 36°21' E 025°21'1010.1
2014-Oct-15 04:33N 36°20' E 025°33'1010.1
2014-Oct-15 03:32N 36°21' E 025°46'0 0.2
2014-Oct-15 02:32N 36°21' E 025°46'0 0.0
2014-Oct-15 01:32N 36°21' E 025°46'0 0.0
2014-Oct-15 00:33N 36°21' E 025°46'0 0.0
2014-Oct-14 23:32N 36°21' E 025°46'0 0.3
2014-Oct-14 22:33N 36°20' E 025°46'9 8.9
2014-Oct-14 21:33N 36°24' E 025°56'1110.7
2014-Oct-14 20:33N 36°32' E 026°05'1110.1
2014-Oct-14 19:29N 36°37' E 026°17'  
Track history (hours):
 
Tides and Currents Weather Stations Pressure Air Temp Water Temp Dewpoint Dewpoint Depression Visibility Wind Speed Wind Dir Waves Ship Positions

Chrisanthi

Last reported at 2014-Oct-24 12:34 UTC. Time now 2014-Oct-25 01:39 UTC.
Position N 37°42' E 023°27'.

Length 56 m; draft 3.9 m.

Type: Tanker. MMSI: 237009100.

Date/timePositionNaut miles runAvg speedWind from/ knotsBaromVisibWave heightAir tempDewpointWater temp
2014-Oct-24 12:34N 37°42' E 023°27'8 7.9
2014-Oct-24 11:33N 37°43' E 023°17'12 9.9
2014-Oct-24 10:19N 37°53' E 023°07'3 1.4
2014-Oct-24 08:26N 37°55' E 023°05'11 1.4
2014-Oct-24 00:24N 37°52' E 023°19'910.4
2014-Oct-23 23:34N 37°50' E 023°30'9 9.2
2014-Oct-23 22:34N 37°48' E 023°41'28 9.4
2014-Oct-23 19:32N 37°31' E 024°10'10 9.9
2014-Oct-23 18:33N 37°30' E 024°22'9 9.2
2014-Oct-23 17:34N 37°25' E 024°32'10 9.6
2014-Oct-23 16:33N 37°18' E 024°39'9 9.0
2014-Oct-23 15:33N 37°13' E 024°49'8 8.1
2014-Oct-23 14:33N 37°10' E 024°58'10 8.7
2014-Oct-23 13:28N 37°05' E 025°09'0 0.4
2014-Oct-23 12:28N 37°06' E 025°08'1 0.6
2014-Oct-23 11:26N 37°05' E 025°09'0 0.0
2014-Oct-23 10:29N 37°05' E 025°09'0 0.0
2014-Oct-23 09:10N 37°05' E 025°09'0 0.0
2014-Oct-23 08:18N 37°05' E 025°09'0 0.0
2014-Oct-23 07:27N 37°05' E 025°09'0 0.0
2014-Oct-23 06:33N 37°05' E 025°09'0 0.1
2014-Oct-23 05:16N 37°05' E 025°09'4 6.0
2014-Oct-23 04:33N 37°09' E 025°11'8 8.2
2014-Oct-23 03:33N 37°06' E 025°21'1 0.5
2014-Oct-23 02:33N 37°06' E 025°22'0 0.0
2014-Oct-23 01:33N 37°06' E 025°22'0 0.0
2014-Oct-23 00:33N 37°06' E 025°22'0 0.0
2014-Oct-22 23:34N 37°06' E 025°22'0 0.0
2014-Oct-22 22:33N 37°06' E 025°22'0 0.0
2014-Oct-22 21:33N 37°06' E 025°22'0 0.0
2014-Oct-22 20:33N 37°06' E 025°22'1 0.6
2014-Oct-22 19:33N 37°06' E 025°22'0 0.0
2014-Oct-22 18:33N 37°06' E 025°22'0 0.0
2014-Oct-22 17:33N 37°06' E 025°22'0 0.0
2014-Oct-22 16:33N 37°06' E 025°22'0 0.0
2014-Oct-22 15:33N 37°06' E 025°22'1 0.9
2014-Oct-22 14:33N 37°06' E 025°21'8 7.7
2014-Oct-22 13:33N 36°59' E 025°21'9 8.5
2014-Oct-22 12:33N 36°55' E 025°31'4 4.3
2014-Oct-22 11:33N 36°56' E 025°36'3 3.5
2014-Oct-22 10:33N 36°58' E 025°40'9 2.3
2014-Oct-22 06:33N 37°05' E 025°47'1010.2
2014-Oct-22 05:33N 36°57' E 025°39'3 2.8
2014-Oct-22 04:33N 36°56' E 025°36'7 6.6
2014-Oct-22 03:33N 36°52' E 025°29'0 0.5
2014-Oct-22 02:32N 36°52' E 025°29'0 0.0
2014-Oct-22 01:33N 36°52' E 025°29'0 0.0
2014-Oct-22 00:33N 36°52' E 025°29'0 0.0
2014-Oct-21 23:33N 36°52' E 025°29'0 0.0
2014-Oct-21 22:33N 36°52' E 025°29'0 0.0
2014-Oct-21 21:33N 36°52' E 025°29'1 0.6
2014-Oct-21 20:33N 36°52' E 025°28'0 0.0
2014-Oct-21 19:33N 36°52' E 025°28'0 0.0
2014-Oct-21 18:33N 36°52' E 025°28'0 0.0
2014-Oct-21 17:33N 36°52' E 025°28'2 1.6
2014-Oct-21 16:33N 36°52' E 025°26'1010.1
2014-Oct-21 15:33N 36°47' E 025°15'4 3.5
2014-Oct-21 14:33N 36°43' E 025°16'0 0.3
2014-Oct-21 13:33N 36°43' E 025°16'10 9.8
2014-Oct-21 12:33N 36°34' E 025°19'1010.1
2014-Oct-21 11:33N 36°25' E 025°25'2 1.7
2014-Oct-21 10:33N 36°23' E 025°26'0 0.0
2014-Oct-21 09:33N 36°23' E 025°26'0 0.0
2014-Oct-21 08:33N 36°23' E 025°26'0 0.0
2014-Oct-21 07:33N 36°23' E 025°26'7 6.7
2014-Oct-21 06:33N 36°29' E 025°23'1010.2
2014-Oct-21 05:33N 36°32' E 025°35'1110.5
2014-Oct-21 04:33N 36°35' E 025°47'1010.0
2014-Oct-21 03:33N 36°39' E 025°59'11 9.9
2014-Oct-21 02:30N 36°43' E 026°11'9 9.8
2014-Oct-21 01:33N 36°45' E 026°22'  
2014-Oct-18 00:33N 37°04' E 026°19'1510.8
2014-Oct-17 23:12N 37°08' E 026°01'1211.1
2014-Oct-17 22:08N 37°10' E 025°47'710.4
2014-Oct-17 21:29N 37°12' E 025°38'910.2
2014-Oct-17 20:33N 37°11' E 025°27'6 5.5
2014-Oct-17 19:32N 37°06' E 025°22'0 0.0
2014-Oct-17 18:33N 37°06' E 025°22'0 0.0
2014-Oct-17 17:33N 37°06' E 025°22'6 6.4
2014-Oct-17 16:33N 37°11' E 025°16'1310.2
2014-Oct-17 15:19N 37°16' E 025°02'810.2
2014-Oct-17 14:33N 37°19' E 024°53'4710.6
2014-Oct-17 10:07N 37°35' E 023°58'610.1
2014-Oct-17 09:32N 37°37' E 023°51'9 9.4
2014-Oct-17 08:33N 37°42' E 023°41'1010.1
2014-Oct-17 07:33N 37°50' E 023°33'1110.6
2014-Oct-17 06:33N 37°52' E 023°20'1 0.1
2014-Oct-16 19:33N 37°52' E 023°22'1010.1
2014-Oct-16 18:33N 37°51' E 023°34'9 8.8
2014-Oct-16 17:33N 37°45' E 023°43'10 9.5
2014-Oct-16 16:30N 37°38' E 023°52'1310.0
2014-Oct-16 15:10N 37°34' E 024°08'1610.1
2014-Oct-16 13:33N 37°29' E 024°28'10 9.7
2014-Oct-16 12:33N 37°24' E 024°38'10 9.8
2014-Oct-16 11:33N 37°18' E 024°48'10 9.9
2014-Oct-16 10:33N 37°12' E 024°57'1110.1
2014-Oct-16 09:28N 37°05' E 025°08'0 0.1
2014-Oct-16 06:16N 37°05' E 025°09'0 0.0
2014-Oct-16 05:16N 37°05' E 025°09'4 4.7
2014-Oct-16 04:25N 37°09' E 025°11'7 8.5
2014-Oct-16 03:33N 37°08' E 025°20'2 1.8
2014-Oct-16 02:33N 37°06' E 025°22'0 0.0
2014-Oct-16 01:33N 37°06' E 025°22'0 0.0
2014-Oct-16 00:33N 37°06' E 025°22'0 0.0
2014-Oct-15 23:33N 37°06' E 025°22'0 0.0
2014-Oct-15 22:33N 37°06' E 025°22'0 0.0
2014-Oct-15 21:33N 37°06' E 025°22'0 0.0
2014-Oct-15 20:33N 37°06' E 025°22'1 0.5
2014-Oct-15 19:33N 37°06' E 025°22'0 0.0
2014-Oct-15 18:33N 37°06' E 025°22'4 4.1
2014-Oct-15 17:33N 37°04' E 025°19'1010.1
2014-Oct-15 16:33N 36°54' E 025°16'1010.3
2014-Oct-15 15:33N 36°44' E 025°14'2 1.5
2014-Oct-15 14:33N 36°43' E 025°16'3 3.3
2014-Oct-15 13:33N 36°40' E 025°16'1110.8
2014-Oct-15 12:34N 36°30' E 025°21'8 7.8
2014-Oct-15 11:33N 36°23' E 025°26'0 0.0
2014-Oct-15 10:33N 36°23' E 025°26'0 0.0
2014-Oct-15 09:34N 36°23' E 025°26'0 0.0
2014-Oct-15 08:33N 36°23' E 025°26'0 0.0
2014-Oct-15 07:33N 36°23' E 025°26'0 0.0
2014-Oct-15 06:33N 36°23' E 025°26'5 4.8
2014-Oct-15 05:33N 36°21' E 025°21'1010.1
2014-Oct-15 04:33N 36°20' E 025°33'1010.1
2014-Oct-15 03:32N 36°21' E 025°46'0 0.2
2014-Oct-15 02:32N 36°21' E 025°46'0 0.0
2014-Oct-15 01:32N 36°21' E 025°46'0 0.0
2014-Oct-15 00:33N 36°21' E 025°46'0 0.0
2014-Oct-14 23:32N 36°21' E 025°46'0 0.3
2014-Oct-14 22:33N 36°20' E 025°46'9 8.9
2014-Oct-14 21:33N 36°24' E 025°56'1110.7
2014-Oct-14 20:33N 36°32' E 026°05'1110.1
2014-Oct-14 19:29N 36°37' E 026°17'  

Dump ship's entire track history